sensor_id;sensor_type;location;lat;lon;timestamp;P1;durP1;ratioP1;P2;durP2;ratioP2
23608;SDS011;11982;50.810;4.442;2024-03-22T00:00:13;88.50;;;41.72;;
23608;SDS011;11982;50.810;4.442;2024-03-22T00:02:39;83.75;;;41.38;;
23608;SDS011;11982;50.810;4.442;2024-03-22T00:05:04;81.85;;;39.33;;
23608;SDS011;11982;50.810;4.442;2024-03-22T00:07:30;77.00;;;37.60;;
23608;SDS011;11982;50.810;4.442;2024-03-22T00:09:56;77.18;;;38.13;;
23608;SDS011;11982;50.810;4.442;2024-03-22T00:12:22;76.18;;;36.72;;
23608;SDS011;11982;50.810;4.442;2024-03-22T00:14:48;68.68;;;33.67;;
23608;SDS011;11982;50.810;4.442;2024-03-22T00:17:16;69.65;;;34.67;;
23608;SDS011;11982;50.810;4.442;2024-03-22T00:19:42;64.38;;;33.42;;
23608;SDS011;11982;50.810;4.442;2024-03-22T00:22:07;61.13;;;32.08;;
23608;SDS011;11982;50.810;4.442;2024-03-22T00:24:34;58.45;;;31.55;;
23608;SDS011;11982;50.810;4.442;2024-03-22T00:26:59;57.95;;;30.33;;
23608;SDS011;11982;50.810;4.442;2024-03-22T00:29:25;55.42;;;30.35;;
23608;SDS011;11982;50.810;4.442;2024-03-22T00:31:51;56.25;;;30.25;;
23608;SDS011;11982;50.810;4.442;2024-03-22T00:34:17;55.22;;;28.77;;
23608;SDS011;11982;50.810;4.442;2024-03-22T00:36:42;53.50;;;27.50;;
23608;SDS011;11982;50.810;4.442;2024-03-22T00:39:08;56.38;;;27.98;;
23608;SDS011;11982;50.810;4.442;2024-03-22T00:41:34;48.55;;;25.77;;
23608;SDS011;11982;50.810;4.442;2024-03-22T00:43:59;53.75;;;27.70;;
23608;SDS011;11982;50.810;4.442;2024-03-22T00:46:25;49.15;;;26.92;;
23608;SDS011;11982;50.810;4.442;2024-03-22T00:48:51;58.55;;;27.17;;
23608;SDS011;11982;50.810;4.442;2024-03-22T00:51:17;56.42;;;28.23;;
23608;SDS011;11982;50.810;4.442;2024-03-22T00:53:42;50.58;;;27.63;;
23608;SDS011;11982;50.810;4.442;2024-03-22T00:56:08;52.85;;;27.65;;
23608;SDS011;11982;50.810;4.442;2024-03-22T00:58:34;57.10;;;27.27;;
23608;SDS011;11982;50.810;4.442;2024-03-22T01:00:59;55.55;;;27.30;;
23608;SDS011;11982;50.810;4.442;2024-03-22T01:03:25;51.88;;;27.45;;
23608;SDS011;11982;50.810;4.442;2024-03-22T01:05:51;54.05;;;27.52;;
23608;SDS011;11982;50.810;4.442;2024-03-22T01:08:16;54.08;;;28.38;;
23608;SDS011;11982;50.810;4.442;2024-03-22T01:10:42;58.47;;;31.25;;
23608;SDS011;11982;50.810;4.442;2024-03-22T01:13:08;53.22;;;28.90;;
23608;SDS011;11982;50.810;4.442;2024-03-22T01:15:33;54.40;;;28.05;;
23608;SDS011;11982;50.810;4.442;2024-03-22T01:17:59;56.28;;;28.60;;
23608;SDS011;11982;50.810;4.442;2024-03-22T01:20:25;63.03;;;30.95;;
23608;SDS011;11982;50.810;4.442;2024-03-22T01:22:51;55.05;;;27.90;;
23608;SDS011;11982;50.810;4.442;2024-03-22T01:25:16;56.72;;;29.35;;
23608;SDS011;11982;50.810;4.442;2024-03-22T01:27:42;63.80;;;29.60;;
23608;SDS011;11982;50.810;4.442;2024-03-22T01:30:08;66.40;;;32.25;;
23608;SDS011;11982;50.810;4.442;2024-03-22T01:32:34;63.00;;;29.45;;
23608;SDS011;11982;50.810;4.442;2024-03-22T01:35:00;61.22;;;30.65;;
23608;SDS011;11982;50.810;4.442;2024-03-22T01:37:26;65.97;;;31.98;;
23608;SDS011;11982;50.810;4.442;2024-03-22T01:39:52;63.53;;;30.23;;
23608;SDS011;11982;50.810;4.442;2024-03-22T01:42:17;64.78;;;31.63;;
23608;SDS011;11982;50.810;4.442;2024-03-22T01:44:43;58.80;;;31.10;;
23608;SDS011;11982;50.810;4.442;2024-03-22T01:47:09;61.40;;;30.85;;
23608;SDS011;11982;50.810;4.442;2024-03-22T01:49:35;58.08;;;30.75;;
23608;SDS011;11982;50.810;4.442;2024-03-22T01:52:01;69.38;;;32.88;;
23608;SDS011;11982;50.810;4.442;2024-03-22T01:54:28;66.28;;;32.70;;
23608;SDS011;11982;50.810;4.442;2024-03-22T01:56:55;62.60;;;32.33;;
23608;SDS011;11982;50.810;4.442;2024-03-22T01:59:21;65.07;;;34.55;;
23608;SDS011;11982;50.810;4.442;2024-03-22T02:01:47;60.90;;;31.88;;
23608;SDS011;11982;50.810;4.442;2024-03-22T02:04:14;72.40;;;33.85;;
23608;SDS011;11982;50.810;4.442;2024-03-22T02:06:39;58.58;;;31.70;;
23608;SDS011;11982;50.810;4.442;2024-03-22T02:09:05;68.95;;;33.88;;
23608;SDS011;11982;50.810;4.442;2024-03-22T02:11:34;64.28;;;32.10;;
23608;SDS011;11982;50.810;4.442;2024-03-22T02:14:02;67.00;;;33.33;;
23608;SDS011;11982;50.810;4.442;2024-03-22T02:16:29;69.22;;;33.40;;
23608;SDS011;11982;50.810;4.442;2024-03-22T02:18:55;67.90;;;33.95;;
23608;SDS011;11982;50.810;4.442;2024-03-22T02:21:20;66.53;;;33.65;;
23608;SDS011;11982;50.810;4.442;2024-03-22T02:23:46;63.53;;;32.03;;
23608;SDS011;11982;50.810;4.442;2024-03-22T02:26:12;66.10;;;32.15;;
23608;SDS011;11982;50.810;4.442;2024-03-22T02:28:37;63.30;;;31.75;;
23608;SDS011;11982;50.810;4.442;2024-03-22T02:31:03;72.47;;;32.88;;
23608;SDS011;11982;50.810;4.442;2024-03-22T02:33:29;64.40;;;30.45;;
23608;SDS011;11982;50.810;4.442;2024-03-22T02:35:55;64.65;;;31.83;;
23608;SDS011;11982;50.810;4.442;2024-03-22T02:38:21;66.88;;;31.08;;
23608;SDS011;11982;50.810;4.442;2024-03-22T02:40:47;61.15;;;31.33;;
23608;SDS011;11982;50.810;4.442;2024-03-22T02:43:14;57.17;;;30.13;;
23608;SDS011;11982;50.810;4.442;2024-03-22T02:45:40;62.78;;;31.23;;
23608;SDS011;11982;50.810;4.442;2024-03-22T02:48:06;64.10;;;30.38;;
23608;SDS011;11982;50.810;4.442;2024-03-22T02:50:35;54.20;;;28.35;;
23608;SDS011;11982;50.810;4.442;2024-03-22T02:53:01;59.58;;;29.17;;
23608;SDS011;11982;50.810;4.442;2024-03-22T02:55:28;58.08;;;29.48;;
23608;SDS011;11982;50.810;4.442;2024-03-22T02:57:53;58.03;;;27.85;;
23608;SDS011;11982;50.810;4.442;2024-03-22T03:00:20;58.97;;;28.48;;
23608;SDS011;11982;50.810;4.442;2024-03-22T03:02:46;55.75;;;27.83;;
23608;SDS011;11982;50.810;4.442;2024-03-22T03:05:12;53.38;;;26.75;;
23608;SDS011;11982;50.810;4.442;2024-03-22T03:07:37;58.40;;;27.48;;
23608;SDS011;11982;50.810;4.442;2024-03-22T03:10:03;54.42;;;26.27;;
23608;SDS011;11982;50.810;4.442;2024-03-22T03:12:29;58.13;;;28.88;;
23608;SDS011;11982;50.810;4.442;2024-03-22T03:14:55;58.92;;;27.92;;
23608;SDS011;11982;50.810;4.442;2024-03-22T03:17:21;54.83;;;28.30;;
23608;SDS011;11982;50.810;4.442;2024-03-22T03:19:48;58.70;;;27.50;;
23608;SDS011;11982;50.810;4.442;2024-03-22T03:22:14;53.28;;;26.92;;
23608;SDS011;11982;50.810;4.442;2024-03-22T03:24:40;52.00;;;27.23;;
23608;SDS011;11982;50.810;4.442;2024-03-22T03:27:05;54.15;;;27.83;;
23608;SDS011;11982;50.810;4.442;2024-03-22T03:29:32;53.78;;;25.92;;
23608;SDS011;11982;50.810;4.442;2024-03-22T03:31:57;52.30;;;25.05;;
23608;SDS011;11982;50.810;4.442;2024-03-22T03:34:23;52.10;;;26.02;;
23608;SDS011;11982;50.810;4.442;2024-03-22T03:36:49;48.88;;;24.92;;
23608;SDS011;11982;50.810;4.442;2024-03-22T03:39:14;50.08;;;24.92;;
23608;SDS011;11982;50.810;4.442;2024-03-22T03:41:40;45.83;;;24.55;;
23608;SDS011;11982;50.810;4.442;2024-03-22T03:44:06;50.78;;;23.85;;
23608;SDS011;11982;50.810;4.442;2024-03-22T03:46:31;47.75;;;23.90;;
23608;SDS011;11982;50.810;4.442;2024-03-22T03:48:57;49.42;;;24.15;;
23608;SDS011;11982;50.810;4.442;2024-03-22T03:51:22;49.95;;;25.25;;
23608;SDS011;11982;50.810;4.442;2024-03-22T03:53:48;44.40;;;23.48;;
23608;SDS011;11982;50.810;4.442;2024-03-22T03:56:14;46.20;;;23.35;;
23608;SDS011;11982;50.810;4.442;2024-03-22T03:58:39;47.03;;;22.80;;
23608;SDS011;11982;50.810;4.442;2024-03-22T04:01:08;42.65;;;22.63;;
23608;SDS011;11982;50.810;4.442;2024-03-22T04:03:34;48.50;;;22.92;;
23608;SDS011;11982;50.810;4.442;2024-03-22T04:06:00;48.60;;;23.00;;
23608;SDS011;11982;50.810;4.442;2024-03-22T04:08:26;43.85;;;23.00;;
23608;SDS011;11982;50.810;4.442;2024-03-22T04:10:53;45.88;;;23.02;;
23608;SDS011;11982;50.810;4.442;2024-03-22T04:13:22;41.03;;;21.85;;
23608;SDS011;11982;50.810;4.442;2024-03-22T04:15:48;43.92;;;22.13;;
23608;SDS011;11982;50.810;4.442;2024-03-22T04:18:14;44.67;;;22.48;;
23608;SDS011;11982;50.810;4.442;2024-03-22T04:20:40;38.75;;;21.30;;
23608;SDS011;11982;50.810;4.442;2024-03-22T04:23:06;44.38;;;21.55;;
23608;SDS011;11982;50.810;4.442;2024-03-22T04:25:31;41.33;;;21.00;;
23608;SDS011;11982;50.810;4.442;2024-03-22T04:27:57;45.67;;;22.55;;
23608;SDS011;11982;50.810;4.442;2024-03-22T04:30:23;40.10;;;20.52;;
23608;SDS011;11982;50.810;4.442;2024-03-22T04:32:48;37.72;;;20.50;;
23608;SDS011;11982;50.810;4.442;2024-03-22T04:35:14;46.05;;;20.63;;
23608;SDS011;11982;50.810;4.442;2024-03-22T04:37:40;41.28;;;20.58;;
23608;SDS011;11982;50.810;4.442;2024-03-22T04:40:05;40.80;;;19.83;;
23608;SDS011;11982;50.810;4.442;2024-03-22T04:42:32;35.83;;;19.88;;
23608;SDS011;11982;50.810;4.442;2024-03-22T04:44:57;41.40;;;20.83;;
23608;SDS011;11982;50.810;4.442;2024-03-22T04:47:23;38.67;;;20.70;;
23608;SDS011;11982;50.810;4.442;2024-03-22T04:49:49;41.10;;;20.25;;
23608;SDS011;11982;50.810;4.442;2024-03-22T04:52:14;36.30;;;19.30;;
23608;SDS011;11982;50.810;4.442;2024-03-22T04:54:40;37.92;;;19.52;;
23608;SDS011;11982;50.810;4.442;2024-03-22T04:57:06;39.33;;;19.25;;
23608;SDS011;11982;50.810;4.442;2024-03-22T04:59:31;40.13;;;19.85;;
23608;SDS011;11982;50.810;4.442;2024-03-22T05:01:57;41.15;;;20.27;;
23608;SDS011;11982;50.810;4.442;2024-03-22T05:04:23;41.22;;;19.77;;
23608;SDS011;11982;50.810;4.442;2024-03-22T05:06:49;40.38;;;19.67;;
23608;SDS011;11982;50.810;4.442;2024-03-22T05:09:14;37.08;;;18.90;;
23608;SDS011;11982;50.810;4.442;2024-03-22T05:11:40;37.58;;;19.35;;
23608;SDS011;11982;50.810;4.442;2024-03-22T05:14:06;40.22;;;19.17;;
23608;SDS011;11982;50.810;4.442;2024-03-22T05:16:31;40.40;;;19.70;;
23608;SDS011;11982;50.810;4.442;2024-03-22T05:18:57;37.72;;;20.23;;
23608;SDS011;11982;50.810;4.442;2024-03-22T05:21:23;38.83;;;18.98;;
23608;SDS011;11982;50.810;4.442;2024-03-22T05:23:49;38.53;;;19.42;;
23608;SDS011;11982;50.810;4.442;2024-03-22T05:26:15;40.55;;;20.02;;
23608;SDS011;11982;50.810;4.442;2024-03-22T05:28:40;42.42;;;20.60;;
23608;SDS011;11982;50.810;4.442;2024-03-22T05:31:06;44.20;;;19.88;;
23608;SDS011;11982;50.810;4.442;2024-03-22T05:33:31;39.90;;;19.90;;
23608;SDS011;11982;50.810;4.442;2024-03-22T05:35:57;43.38;;;20.27;;
23608;SDS011;11982;50.810;4.442;2024-03-22T05:38:24;42.97;;;20.05;;
23608;SDS011;11982;50.810;4.442;2024-03-22T05:40:49;42.38;;;21.02;;
23608;SDS011;11982;50.810;4.442;2024-03-22T05:43:15;52.10;;;23.42;;
23608;SDS011;11982;50.810;4.442;2024-03-22T05:45:41;42.92;;;21.58;;
23608;SDS011;11982;50.810;4.442;2024-03-22T05:48:07;43.78;;;21.17;;
23608;SDS011;11982;50.810;4.442;2024-03-22T05:50:32;41.60;;;22.15;;
23608;SDS011;11982;50.810;4.442;2024-03-22T05:52:58;49.15;;;22.48;;
23608;SDS011;11982;50.810;4.442;2024-03-22T05:55:24;43.97;;;22.35;;
23608;SDS011;11982;50.810;4.442;2024-03-22T05:57:52;47.83;;;22.77;;
23608;SDS011;11982;50.810;4.442;2024-03-22T06:00:18;49.75;;;21.83;;
23608;SDS011;11982;50.810;4.442;2024-03-22T06:02:43;46.72;;;22.35;;
23608;SDS011;11982;50.810;4.442;2024-03-22T06:05:09;46.70;;;22.88;;
23608;SDS011;11982;50.810;4.442;2024-03-22T06:07:35;47.30;;;22.80;;
23608;SDS011;11982;50.810;4.442;2024-03-22T06:10:07;50.15;;;24.15;;
23608;SDS011;11982;50.810;4.442;2024-03-22T06:12:35;48.88;;;23.77;;
23608;SDS011;11982;50.810;4.442;2024-03-22T06:15:01;49.00;;;23.52;;
23608;SDS011;11982;50.810;4.442;2024-03-22T06:17:31;56.13;;;24.85;;
23608;SDS011;11982;50.810;4.442;2024-03-22T06:19:58;43.20;;;20.00;;
23608;SDS011;11982;50.810;4.442;2024-03-22T06:22:24;44.13;;;20.67;;
23608;SDS011;11982;50.810;4.442;2024-03-22T06:24:50;38.80;;;20.30;;
23608;SDS011;11982;50.810;4.442;2024-03-22T06:27:16;40.05;;;20.30;;
23608;SDS011;11982;50.810;4.442;2024-03-22T06:29:42;39.33;;;19.90;;
23608;SDS011;11982;50.810;4.442;2024-03-22T06:32:08;40.05;;;20.27;;
23608;SDS011;11982;50.810;4.442;2024-03-22T06:34:33;38.08;;;18.05;;
23608;SDS011;11982;50.810;4.442;2024-03-22T06:36:59;36.17;;;18.15;;
23608;SDS011;11982;50.810;4.442;2024-03-22T06:39:25;32.63;;;17.00;;
23608;SDS011;11982;50.810;4.442;2024-03-22T06:41:51;31.63;;;16.35;;
23608;SDS011;11982;50.810;4.442;2024-03-22T06:44:16;37.80;;;16.27;;
23608;SDS011;11982;50.810;4.442;2024-03-22T06:46:42;33.10;;;16.05;;
23608;SDS011;11982;50.810;4.442;2024-03-22T06:49:08;39.92;;;18.48;;
23608;SDS011;11982;50.810;4.442;2024-03-22T06:51:33;40.60;;;17.35;;
23608;SDS011;11982;50.810;4.442;2024-03-22T06:53:59;37.53;;;16.60;;
23608;SDS011;11982;50.810;4.442;2024-03-22T06:56:25;36.40;;;16.95;;
23608;SDS011;11982;50.810;4.442;2024-03-22T06:58:51;42.22;;;18.60;;
23608;SDS011;11982;50.810;4.442;2024-03-22T07:01:16;41.47;;;19.00;;
23608;SDS011;11982;50.810;4.442;2024-03-22T07:03:42;39.13;;;17.50;;
23608;SDS011;11982;50.810;4.442;2024-03-22T07:06:10;35.50;;;16.42;;
23608;SDS011;11982;50.810;4.442;2024-03-22T07:08:36;40.88;;;17.90;;
23608;SDS011;11982;50.810;4.442;2024-03-22T07:11:05;38.05;;;17.88;;
23608;SDS011;11982;50.810;4.442;2024-03-22T07:13:34;37.00;;;17.45;;
23608;SDS011;11982;50.810;4.442;2024-03-22T07:16:00;39.55;;;17.55;;
23608;SDS011;11982;50.810;4.442;2024-03-22T07:18:26;42.22;;;17.80;;
23608;SDS011;11982;50.810;4.442;2024-03-22T07:20:52;40.78;;;18.08;;
23608;SDS011;11982;50.810;4.442;2024-03-22T07:23:17;45.28;;;19.15;;
23608;SDS011;11982;50.810;4.442;2024-03-22T07:25:43;46.38;;;19.70;;
23608;SDS011;11982;50.810;4.442;2024-03-22T07:28:10;47.80;;;19.80;;
23608;SDS011;11982;50.810;4.442;2024-03-22T07:30:36;41.08;;;18.80;;
23608;SDS011;11982;50.810;4.442;2024-03-22T07:33:02;46.35;;;19.70;;
23608;SDS011;11982;50.810;4.442;2024-03-22T07:35:29;44.47;;;19.52;;
23608;SDS011;11982;50.810;4.442;2024-03-22T07:37:54;45.28;;;19.52;;
23608;SDS011;11982;50.810;4.442;2024-03-22T07:40:20;42.97;;;19.17;;
23608;SDS011;11982;50.810;4.442;2024-03-22T07:42:45;42.35;;;18.13;;
23608;SDS011;11982;50.810;4.442;2024-03-22T07:45:11;41.92;;;18.65;;
23608;SDS011;11982;50.810;4.442;2024-03-22T07:47:37;43.25;;;19.77;;
23608;SDS011;11982;50.810;4.442;2024-03-22T07:50:03;41.70;;;19.23;;
23608;SDS011;11982;50.810;4.442;2024-03-22T07:52:29;39.67;;;18.92;;
23608;SDS011;11982;50.810;4.442;2024-03-22T07:54:55;47.88;;;19.67;;
23608;SDS011;11982;50.810;4.442;2024-03-22T07:57:20;42.72;;;18.90;;
23608;SDS011;11982;50.810;4.442;2024-03-22T07:59:48;45.60;;;20.13;;
23608;SDS011;11982;50.810;4.442;2024-03-22T08:02:13;40.58;;;18.23;;
23608;SDS011;11982;50.810;4.442;2024-03-22T08:04:39;36.30;;;18.13;;
23608;SDS011;11982;50.810;4.442;2024-03-22T08:07:05;39.83;;;17.02;;
23608;SDS011;11982;50.810;4.442;2024-03-22T08:09:30;33.17;;;16.20;;
23608;SDS011;11982;50.810;4.442;2024-03-22T08:11:56;35.45;;;17.02;;
23608;SDS011;11982;50.810;4.442;2024-03-22T08:14:22;33.97;;;17.27;;
23608;SDS011;11982;50.810;4.442;2024-03-22T08:16:48;41.25;;;18.85;;
23608;SDS011;11982;50.810;4.442;2024-03-22T08:19:13;43.03;;;19.60;;
23608;SDS011;11982;50.810;4.442;2024-03-22T08:21:39;40.25;;;19.50;;
23608;SDS011;11982;50.810;4.442;2024-03-22T08:24:05;51.67;;;21.00;;
23608;SDS011;11982;50.810;4.442;2024-03-22T08:26:31;38.78;;;20.02;;
23608;SDS011;11982;50.810;4.442;2024-03-22T08:28:56;43.83;;;20.40;;
23608;SDS011;11982;50.810;4.442;2024-03-22T08:31:22;40.55;;;19.35;;
23608;SDS011;11982;50.810;4.442;2024-03-22T08:33:51;41.47;;;20.48;;
23608;SDS011;11982;50.810;4.442;2024-03-22T08:36:16;41.95;;;19.98;;
23608;SDS011;11982;50.810;4.442;2024-03-22T08:38:42;45.63;;;21.38;;
23608;SDS011;11982;50.810;4.442;2024-03-22T08:41:08;42.72;;;20.58;;
23608;SDS011;11982;50.810;4.442;2024-03-22T08:43:33;37.97;;;19.25;;
23608;SDS011;11982;50.810;4.442;2024-03-22T08:45:59;35.03;;;19.45;;
23608;SDS011;11982;50.810;4.442;2024-03-22T08:48:25;40.33;;;18.60;;
23608;SDS011;11982;50.810;4.442;2024-03-22T08:50:51;36.08;;;17.95;;
23608;SDS011;11982;50.810;4.442;2024-03-22T08:53:17;41.65;;;18.00;;
23608;SDS011;11982;50.810;4.442;2024-03-22T08:55:46;31.88;;;17.60;;
23608;SDS011;11982;50.810;4.442;2024-03-22T08:58:15;33.92;;;18.63;;
23608;SDS011;11982;50.810;4.442;2024-03-22T09:00:42;34.70;;;18.38;;
23608;SDS011;11982;50.810;4.442;2024-03-22T09:03:08;37.28;;;18.20;;
23608;SDS011;11982;50.810;4.442;2024-03-22T09:05:34;31.90;;;16.52;;
23608;SDS011;11982;50.810;4.442;2024-03-22T09:08:00;34.80;;;17.52;;
23608;SDS011;11982;50.810;4.442;2024-03-22T09:10:28;33.55;;;17.95;;
23608;SDS011;11982;50.810;4.442;2024-03-22T09:12:54;34.80;;;17.02;;
23608;SDS011;11982;50.810;4.442;2024-03-22T09:15:21;33.80;;;17.58;;
23608;SDS011;11982;50.810;4.442;2024-03-22T09:17:47;33.45;;;17.80;;
23608;SDS011;11982;50.810;4.442;2024-03-22T09:20:13;32.05;;;16.77;;
23608;SDS011;11982;50.810;4.442;2024-03-22T09:22:38;34.90;;;17.67;;
23608;SDS011;11982;50.810;4.442;2024-03-22T09:25:04;35.10;;;18.80;;
23608;SDS011;11982;50.810;4.442;2024-03-22T09:27:31;32.55;;;18.55;;
23608;SDS011;11982;50.810;4.442;2024-03-22T09:29:57;30.05;;;16.48;;
23608;SDS011;11982;50.810;4.442;2024-03-22T09:32:23;34.20;;;17.45;;
23608;SDS011;11982;50.810;4.442;2024-03-22T09:34:49;32.83;;;16.67;;
23608;SDS011;11982;50.810;4.442;2024-03-22T09:37:15;36.28;;;17.95;;
23608;SDS011;11982;50.810;4.442;2024-03-22T09:39:41;33.58;;;18.02;;
23608;SDS011;11982;50.810;4.442;2024-03-22T09:42:07;36.22;;;17.55;;
23608;SDS011;11982;50.810;4.442;2024-03-22T09:44:33;37.20;;;18.05;;
23608;SDS011;11982;50.810;4.442;2024-03-22T09:47:00;34.20;;;19.02;;
23608;SDS011;11982;50.810;4.442;2024-03-22T09:49:26;36.28;;;18.70;;
23608;SDS011;11982;50.810;4.442;2024-03-22T09:51:52;33.63;;;18.50;;
23608;SDS011;11982;50.810;4.442;2024-03-22T09:54:19;37.67;;;19.13;;
23608;SDS011;11982;50.810;4.442;2024-03-22T09:56:45;37.17;;;19.35;;
23608;SDS011;11982;50.810;4.442;2024-03-22T09:59:14;36.58;;;18.33;;
23608;SDS011;11982;50.810;4.442;2024-03-22T10:01:39;36.13;;;17.40;;
23608;SDS011;11982;50.810;4.442;2024-03-22T10:04:06;37.42;;;17.70;;
23608;SDS011;11982;50.810;4.442;2024-03-22T10:06:34;39.85;;;19.70;;
23608;SDS011;11982;50.810;4.442;2024-03-22T10:09:00;36.75;;;19.83;;
23608;SDS011;11982;50.810;4.442;2024-03-22T10:11:26;37.47;;;19.02;;
23608;SDS011;11982;50.810;4.442;2024-03-22T10:13:52;39.05;;;18.63;;
23608;SDS011;11982;50.810;4.442;2024-03-22T10:16:20;32.88;;;18.17;;
23608;SDS011;11982;50.810;4.442;2024-03-22T10:18:48;32.08;;;17.70;;
23608;SDS011;11982;50.810;4.442;2024-03-22T10:21:17;34.10;;;18.65;;
23608;SDS011;11982;50.810;4.442;2024-03-22T10:23:43;36.40;;;18.65;;
23608;SDS011;11982;50.810;4.442;2024-03-22T10:26:11;32.72;;;17.92;;
23608;SDS011;11982;50.810;4.442;2024-03-22T10:28:37;31.50;;;16.27;;
23608;SDS011;11982;50.810;4.442;2024-03-22T10:31:11;31.17;;;16.98;;
23608;SDS011;11982;50.810;4.442;2024-03-22T10:33:44;33.13;;;17.65;;
23608;SDS011;11982;50.810;4.442;2024-03-22T10:36:10;34.05;;;17.83;;
23608;SDS011;11982;50.810;4.442;2024-03-22T10:38:38;29.10;;;15.90;;
23608;SDS011;11982;50.810;4.442;2024-03-22T10:41:04;26.13;;;15.20;;
23608;SDS011;11982;50.810;4.442;2024-03-22T10:43:31;28.10;;;15.60;;
23608;SDS011;11982;50.810;4.442;2024-03-22T10:45:58;26.05;;;15.02;;
23608;SDS011;11982;50.810;4.442;2024-03-22T10:48:29;27.52;;;15.60;;
23608;SDS011;11982;50.810;4.442;2024-03-22T10:50:59;28.77;;;16.20;;
23608;SDS011;11982;50.810;4.442;2024-03-22T10:53:26;31.08;;;16.38;;
23608;SDS011;11982;50.810;4.442;2024-03-22T10:55:53;28.83;;;15.48;;
23608;SDS011;11982;50.810;4.442;2024-03-22T10:58:21;30.45;;;15.27;;
23608;SDS011;11982;50.810;4.442;2024-03-22T11:00:50;29.92;;;16.63;;
23608;SDS011;11982;50.810;4.442;2024-03-22T11:03:19;26.90;;;15.00;;
23608;SDS011;11982;50.810;4.442;2024-03-22T11:05:49;26.40;;;14.35;;
23608;SDS011;11982;50.810;4.442;2024-03-22T11:08:25;32.65;;;15.23;;
23608;SDS011;11982;50.810;4.442;2024-03-22T11:10:52;29.52;;;15.25;;
23608;SDS011;11982;50.810;4.442;2024-03-22T11:13:18;31.88;;;15.80;;
23608;SDS011;11982;50.810;4.442;2024-03-22T11:15:47;27.38;;;15.15;;
23608;SDS011;11982;50.810;4.442;2024-03-22T11:18:13;33.47;;;15.90;;
23608;SDS011;11982;50.810;4.442;2024-03-22T11:20:39;29.77;;;15.73;;
23608;SDS011;11982;50.810;4.442;2024-03-22T11:23:04;29.73;;;15.30;;
23608;SDS011;11982;50.810;4.442;2024-03-22T11:25:32;30.30;;;15.55;;
23608;SDS011;11982;50.810;4.442;2024-03-22T11:27:58;29.85;;;14.85;;
23608;SDS011;11982;50.810;4.442;2024-03-22T11:30:26;27.05;;;16.08;;
23608;SDS011;11982;50.810;4.442;2024-03-22T11:33:00;31.13;;;15.90;;
23608;SDS011;11982;50.810;4.442;2024-03-22T11:35:27;26.85;;;13.13;;
23608;SDS011;11982;50.810;4.442;2024-03-22T11:37:53;23.60;;;14.32;;
23608;SDS011;11982;50.810;4.442;2024-03-22T11:40:18;26.00;;;14.55;;
23608;SDS011;11982;50.810;4.442;2024-03-22T11:42:49;24.08;;;13.80;;
23608;SDS011;11982;50.810;4.442;2024-03-22T11:45:17;22.45;;;13.25;;
23608;SDS011;11982;50.810;4.442;2024-03-22T11:47:44;26.95;;;14.98;;
23608;SDS011;11982;50.810;4.442;2024-03-22T11:50:11;31.83;;;14.63;;
23608;SDS011;11982;50.810;4.442;2024-03-22T11:52:41;29.60;;;14.38;;
23608;SDS011;11982;50.810;4.442;2024-03-22T11:55:07;28.13;;;14.82;;
23608;SDS011;11982;50.810;4.442;2024-03-22T11:57:33;26.85;;;13.55;;
23608;SDS011;11982;50.810;4.442;2024-03-22T11:59:59;29.15;;;13.98;;
23608;SDS011;11982;50.810;4.442;2024-03-22T12:02:26;29.00;;;15.80;;
23608;SDS011;11982;50.810;4.442;2024-03-22T12:04:52;27.13;;;15.65;;
23608;SDS011;11982;50.810;4.442;2024-03-22T12:07:18;30.48;;;14.90;;
23608;SDS011;11982;50.810;4.442;2024-03-22T12:09:43;30.85;;;16.27;;
23608;SDS011;11982;50.810;4.442;2024-03-22T12:12:10;29.25;;;15.85;;
23608;SDS011;11982;50.810;4.442;2024-03-22T12:14:37;33.90;;;15.13;;
23608;SDS011;11982;50.810;4.442;2024-03-22T12:17:07;28.95;;;15.73;;
23608;SDS011;11982;50.810;4.442;2024-03-22T12:19:33;24.80;;;14.95;;
23608;SDS011;11982;50.810;4.442;2024-03-22T12:21:59;29.67;;;15.73;;
23608;SDS011;11982;50.810;4.442;2024-03-22T12:24:25;27.08;;;15.23;;
23608;SDS011;11982;50.810;4.442;2024-03-22T12:26:54;27.10;;;14.75;;
23608;SDS011;11982;50.810;4.442;2024-03-22T12:29:20;32.67;;;15.77;;
23608;SDS011;11982;50.810;4.442;2024-03-22T12:31:46;40.70;;;13.45;;
23608;SDS011;11982;50.810;4.442;2024-03-22T12:34:12;29.38;;;15.88;;
23608;SDS011;11982;50.810;4.442;2024-03-22T12:36:38;28.73;;;15.40;;
23608;SDS011;11982;50.810;4.442;2024-03-22T12:39:04;32.67;;;15.90;;
23608;SDS011;11982;50.810;4.442;2024-03-22T12:41:30;29.27;;;15.43;;
23608;SDS011;11982;50.810;4.442;2024-03-22T12:43:57;31.25;;;15.32;;
23608;SDS011;11982;50.810;4.442;2024-03-22T12:46:22;30.23;;;16.02;;
23608;SDS011;11982;50.810;4.442;2024-03-22T12:48:48;34.30;;;16.20;;
23608;SDS011;11982;50.810;4.442;2024-03-22T12:51:14;35.55;;;15.45;;
23608;SDS011;11982;50.810;4.442;2024-03-22T12:53:40;32.15;;;16.55;;
23608;SDS011;11982;50.810;4.442;2024-03-22T12:56:06;27.85;;;15.70;;
23608;SDS011;11982;50.810;4.442;2024-03-22T12:58:32;25.08;;;14.95;;
23608;SDS011;11982;50.810;4.442;2024-03-22T13:00:58;26.85;;;15.85;;
23608;SDS011;11982;50.810;4.442;2024-03-22T13:03:26;34.88;;;17.02;;
23608;SDS011;11982;50.810;4.442;2024-03-22T13:05:51;31.15;;;16.42;;
23608;SDS011;11982;50.810;4.442;2024-03-22T13:08:17;28.70;;;16.23;;
23608;SDS011;11982;50.810;4.442;2024-03-22T13:10:44;30.38;;;15.10;;
23608;SDS011;11982;50.810;4.442;2024-03-22T13:13:10;28.38;;;15.98;;
23608;SDS011;11982;50.810;4.442;2024-03-22T13:15:36;27.55;;;14.75;;
23608;SDS011;11982;50.810;4.442;2024-03-22T13:18:05;31.70;;;15.38;;
23608;SDS011;11982;50.810;4.442;2024-03-22T13:20:31;31.35;;;15.63;;
23608;SDS011;11982;50.810;4.442;2024-03-22T13:22:58;35.47;;;15.80;;
23608;SDS011;11982;50.810;4.442;2024-03-22T13:25:23;32.63;;;16.20;;
23608;SDS011;11982;50.810;4.442;2024-03-22T13:27:49;30.70;;;15.73;;
23608;SDS011;11982;50.810;4.442;2024-03-22T13:30:15;32.05;;;14.98;;
23608;SDS011;11982;50.810;4.442;2024-03-22T13:32:41;32.53;;;15.20;;
23608;SDS011;11982;50.810;4.442;2024-03-22T13:35:07;36.25;;;16.60;;
23608;SDS011;11982;50.810;4.442;2024-03-22T13:37:32;29.98;;;15.27;;
23608;SDS011;11982;50.810;4.442;2024-03-22T13:39:58;29.75;;;14.82;;
23608;SDS011;11982;50.810;4.442;2024-03-22T13:42:25;30.38;;;16.23;;
23608;SDS011;11982;50.810;4.442;2024-03-22T13:44:51;36.92;;;16.67;;
23608;SDS011;11982;50.810;4.442;2024-03-22T13:47:16;28.65;;;15.23;;
23608;SDS011;11982;50.810;4.442;2024-03-22T13:49:43;32.88;;;15.27;;
23608;SDS011;11982;50.810;4.442;2024-03-22T13:52:09;23.45;;;14.55;;
23608;SDS011;11982;50.810;4.442;2024-03-22T13:54:35;29.70;;;14.80;;
23608;SDS011;11982;50.810;4.442;2024-03-22T13:57:01;27.95;;;15.27;;
23608;SDS011;11982;50.810;4.442;2024-03-22T13:59:28;26.00;;;13.63;;
23608;SDS011;11982;50.810;4.442;2024-03-22T14:01:54;36.28;;;16.85;;
23608;SDS011;11982;50.810;4.442;2024-03-22T14:04:21;29.15;;;15.82;;
23608;SDS011;11982;50.810;4.442;2024-03-22T14:06:47;36.50;;;16.08;;
23608;SDS011;11982;50.810;4.442;2024-03-22T14:09:13;29.88;;;15.45;;
23608;SDS011;11982;50.810;4.442;2024-03-22T14:11:40;36.72;;;15.48;;
23608;SDS011;11982;50.810;4.442;2024-03-22T14:14:07;28.95;;;15.70;;